Wetterdaten für den Flughafen Lübeck Blankensee


ADDS - METARS form results Aviation Digital Data Service (ADDS) Output produced by METARs form (0423 UTC 24 October 2021)
found at http://www.aviationweather.gov/metar/data/
 
EDDH 240420Z 15005KT CAVOK 04/03 Q1028 NOSIG
TAF EDDH 232300Z 2400/2506 15003KT 9999 FEW040 BECMG 2408/2410 17009KT BECMG 2415/2418 16004KT

Nord: Hamburg, Lübeck
Ost: Schwerin, Rostock
Süd: Hannover
West: Bremen, Nordhloz

Copyright © 2016 Flugschule Hohensee